This is the latest recevied weather packets stored in our database for station/object KD8UTJ. If no packets are shown the sender has not sent any weather packets the latest 1 day(s).
| Time | Temp. | Humidity | Pressure | Rain* | Wind** | Luminosity | Snow |
|---|---|---|---|---|---|---|---|
| 1778048650 | 23.89° C | 79% | 1018.3 hPa | 0 mm | 0.45 m/s, 139° | 0 W/m² | - |
| 1778048346 | 23.89° C | 78% | 1018.3 hPa | 0 mm | 0.45 m/s, 160° | 0 W/m² | - |
| 1778048042 | 23.89° C | 78% | 1018.4 hPa | 0 mm | 0.89 m/s, 91° | 0 W/m² | - |
| 1778047740 | 23.89° C | 78% | 1018.3 hPa | 0 mm | 0.89 m/s, 140° | 0 W/m² | - |
| 1778047438 | 23.89° C | 78% | 1018.2 hPa | 0 mm | 0.89 m/s, 131° | 0 W/m² | - |
| 1778047135 | 23.89° C | 78% | 1018.3 hPa | 0 mm | 0.45 m/s, 146° | 0 W/m² | - |
| 1778046832 | 23.89° C | 78% | 1018.3 hPa | 0 mm | 0.45 m/s, 136° | 0 W/m² | - |
| 1778046529 | 23.89° C | 77% | 1018.1 hPa | 0 mm | 0.89 m/s, 147° | 0 W/m² | - |
| 1778046225 | 23.89° C | 77% | 1018.5 hPa | 0 mm | 0.45 m/s, 140° | 0 W/m² | - |
| 1778045922 | 23.89° C | 77% | 1018.4 hPa | 0 mm | 0.89 m/s, 121° | 0 W/m² | - |
| 1778045620 | 23.89° C | 77% | 1018.4 hPa | 0 mm | 0.45 m/s, 126° | 0 W/m² | - |
| 1778045318 | 23.89° C | 77% | 1018.6 hPa | 0 mm | 0.45 m/s, 90° | 0 W/m² | - |
| 1778045017 | 23.89° C | 77% | 1018.6 hPa | 0 mm | 0 m/s | 0 W/m² | - |
| 1778044714 | 23.89° C | 77% | 1018.6 hPa | 0 mm | 0.45 m/s, 137° | 0 W/m² | - |
| 1778044410 | 23.89° C | 76% | 1018.7 hPa | 0 mm | 0.45 m/s, 161° | 0 W/m² | - |
| 1778044108 | 23.89° C | 75% | 1018.6 hPa | 0 mm | 0.89 m/s, 113° | 0 W/m² | - |
| 1778043805 | 23.89° C | 75% | 1018.6 hPa | 0 mm | 1.34 m/s, 96° | 0 W/m² | - |
| 1778043502 | 23.89° C | 76% | 1018.7 hPa | 0 mm | 1.79 m/s, 64° | 0 W/m² | - |
| 1778043198 | 23.89° C | 76% | 1018.5 hPa | 0 mm | 1.79 m/s, 111° | 0 W/m² | - |
| 1778042895 | 23.89° C | 76% | 1018.8 hPa | 0 mm | 1.34 m/s, 125° | 0 W/m² | - |
| 1778042593 | 23.89° C | 76% | 1018.6 hPa | 0 mm | 1.79 m/s, 109° | 0 W/m² | - |
| 1778042290 | 23.89° C | 76% | 1018.7 hPa | 0 mm | 0.89 m/s, 57° | 0 W/m² | - |
| 1778041987 | 23.89° C | 75% | 1018.6 hPa | 0 mm | 1.34 m/s, 102° | 0 W/m² | - |
| 1778041686 | 23.89° C | 75% | 1018.6 hPa | 0 mm | 1.79 m/s, 103° | 0 W/m² | - |
| 1778041384 | 23.89° C | 75% | 1018.6 hPa | 0 mm | 1.34 m/s, 107° | 0 W/m² | - |
* Rain latest hour (hover to see other rain measurements)
** Current wind speed in m/s (hover to see current wind gust speed)